Time;durP1;ratioP1;P1;durP2;ratioP2;P2;SDS_P1;SDS_P2;PMS_P1;PMS_P2;Temp;Humidity;BMP_temperature;BMP_pressure;BME280_temperature;BME280_humidity;BME280_pressure;Samples;Min_cycle;Max_cycle;Signal;HPM_P1;HPM_P2
2023/04/02 00:01:19;;;;;;;1.77;0.50;;;;;;;;;;5081610;28;20201;-68
2023/04/02 00:04:07;;;;;;;0.50;0.50;;;;;;;;;;5081322;28;20226;-68
2023/04/02 00:06:39;;;;;;;0.35;0.35;;;;;;;;;;5075959;28;20197;-68
2023/04/02 00:09:17;;;;;;;0.38;0.38;;;;;;;;;;5081599;28;20200;-68
2023/04/02 00:11:45;;;;;;;0.45;0.43;;;;;;;;;;5081392;28;20258;-68
2023/04/02 00:14:15;;;;;;;0.40;0.40;;;;;;;;;;5081616;28;20197;-68
2023/04/02 00:16:41;;;;;;;0.45;0.40;;;;;;;;;;5084881;28;20196;-68
2023/04/02 00:19:12;;;;;;;0.45;0.45;;;;;;;;;;5084739;28;20208;-68
2023/04/02 00:21:41;;;;;;;0.20;0.20;;;;;;;;;;5084741;28;20193;-68
2023/04/02 00:24:10;;;;;;;1.30;0.40;;;;;;;;;;5084489;28;20201;-68
2023/04/02 00:26:38;;;;;;;0.43;0.30;;;;;;;;;;5084743;28;20375;-68
2023/04/02 00:29:05;;;;;;;0.28;0.28;;;;;;;;;;5084455;28;20442;-68
2023/04/02 00:31:32;;;;;;;0.40;0.40;;;;;;;;;;5084993;28;20232;-68
2023/04/02 00:33:59;;;;;;;0.85;0.40;;;;;;;;;;5084067;28;20199;-68
2023/04/02 00:36:28;;;;;;;0.90;0.30;;;;;;;;;;5084648;28;20258;-68
2023/04/02 00:38:57;;;;;;;0.40;0.40;;;;;;;;;;5084251;28;20199;-68
2023/04/02 00:41:26;;;;;;;0.32;0.30;;;;;;;;;;5084958;28;20192;-68
2023/04/02 00:43:53;;;;;;;0.38;0.38;;;;;;;;;;5084290;28;20267;-68
2023/04/02 00:46:22;;;;;;;0.38;0.38;;;;;;;;;;5084314;28;20206;-68
2023/04/02 00:48:50;;;;;;;0.40;0.40;;;;;;;;;;5084610;28;20504;-68
2023/04/02 00:51:20;;;;;;;0.20;0.20;;;;;;;;;;5076352;28;20236;-68
2023/04/02 00:53:47;;;;;;;0.52;0.50;;;;;;;;;;5084273;28;20197;-68
2023/04/02 00:56:18;;;;;;;0.43;0.43;;;;;;;;;;5084086;28;20196;-68
2023/04/02 00:58:44;;;;;;;0.65;0.47;;;;;;;;;;5083977;28;20196;-68
2023/04/02 01:01:16;;;;;;;0.43;0.38;;;;;;;;;;5083832;28;20216;-68
2023/04/02 01:03:43;;;;;;;0.30;0.30;;;;;;;;;;5084185;28;20204;-69
2023/04/02 01:06:10;;;;;;;0.32;0.32;;;;;;;;;;5083755;28;20204;-68
2023/04/02 01:08:43;;;;;;;0.45;0.40;;;;;;;;;;5084302;28;20208;-68
2023/04/02 01:11:17;;;;;;;0.35;0.35;;;;;;;;;;5083825;28;20632;-69
2023/04/02 01:13:51;;;;;;;0.30;0.30;;;;;;;;;;5083804;28;20214;-69
2023/04/02 01:16:21;;;;;;;0.90;0.30;;;;;;;;;;5083811;28;20526;-68
2023/04/02 01:18:51;;;;;;;0.38;0.30;;;;;;;;;;5083806;28;20224;-68
2023/04/02 01:21:24;;;;;;;2.35;0.30;;;;;;;;;;5075487;28;20218;-68
2023/04/02 01:23:55;;;;;;;0.43;0.40;;;;;;;;;;5083377;28;20197;-68
2023/04/02 01:26:26;;;;;;;0.50;0.50;;;;;;;;;;5074934;28;20422;-68
2023/04/02 01:29:01;;;;;;;0.40;0.35;;;;;;;;;;5083577;28;20254;-68
2023/04/02 01:31:27;;;;;;;0.30;0.30;;;;;;;;;;5076708;28;20257;-67
2023/04/02 01:33:54;;;;;;;0.30;0.20;;;;;;;;;;5083232;28;20222;-67
2023/04/02 01:36:25;;;;;;;0.40;0.40;;;;;;;;;;5083485;28;20196;-67
2023/04/02 01:38:57;;;;;;;0.80;0.35;;;;;;;;;;5083551;28;20200;-67
2023/04/02 01:41:26;;;;;;;0.35;0.35;;;;;;;;;;5075755;28;20219;-67
2023/04/02 01:43:57;;;;;;;1.60;0.98;;;;;;;;;;5083207;28;20211;-67
2023/04/02 01:46:25;;;;;;;0.45;0.43;;;;;;;;;;5075801;28;20610;-68
2023/04/02 01:48:52;;;;;;;0.30;0.30;;;;;;;;;;5082710;28;20265;-68
2023/04/02 01:51:24;;;;;;;0.28;0.28;;;;;;;;;;5083216;28;20197;-68
2023/04/02 01:53:51;;;;;;;0.30;0.30;;;;;;;;;;5082761;28;20204;-68
2023/04/02 01:56:18;;;;;;;0.60;0.60;;;;;;;;;;5082531;28;20196;-68
2023/04/02 01:58:48;;;;;;;0.30;0.30;;;;;;;;;;5083221;28;20534;-68
2023/04/02 02:01:16;;;;;;;0.90;0.60;;;;;;;;;;5082939;28;20209;-68
2023/04/02 02:03:44;;;;;;;0.35;0.35;;;;;;;;;;5082546;28;20263;-68
2023/04/02 02:06:12;;;;;;;0.82;0.43;;;;;;;;;;5082849;28;20200;-68
2023/04/02 02:08:39;;;;;;;0.40;0.40;;;;;;;;;;5082814;28;20500;-68
2023/04/02 02:11:06;;;;;;;0.60;0.40;;;;;;;;;;5082468;28;20379;-68
2023/04/02 02:13:33;;;;;;;0.50;0.50;;;;;;;;;;5082672;28;20220;-68
2023/04/02 02:16:00;;;;;;;0.43;0.43;;;;;;;;;;5082805;28;20516;-68
2023/04/02 02:18:27;;;;;;;2.85;0.30;;;;;;;;;;5082802;28;20531;-68
2023/04/02 02:20:56;;;;;;;0.30;0.30;;;;;;;;;;5082722;28;20220;-68
2023/04/02 02:23:22;;;;;;;0.30;0.30;;;;;;;;;;5074678;28;20291;-68
2023/04/02 02:25:48;;;;;;;0.20;0.20;;;;;;;;;;5082607;28;20196;-68
2023/04/02 02:28:20;;;;;;;0.47;0.40;;;;;;;;;;5082733;28;20540;-68
2023/04/02 02:30:47;;;;;;;0.40;0.40;;;;;;;;;;5082971;28;20503;-68
2023/04/02 02:33:16;;;;;;;0.47;0.47;;;;;;;;;;5082002;28;20248;-68
2023/04/02 02:35:44;;;;;;;0.43;0.43;;;;;;;;;;5082606;28;20203;-68
2023/04/02 02:38:31;;;;;;;1.65;0.50;;;;;;;;;;5081955;28;20561;-68
2023/04/02 02:40:59;;;;;;;0.75;0.73;;;;;;;;;;5082320;28;20203;-68
2023/04/02 02:43:26;;;;;;;0.30;0.30;;;;;;;;;;5082346;28;20549;-68
2023/04/02 02:45:53;;;;;;;0.50;0.50;;;;;;;;;;5082408;28;20268;-68
2023/04/02 02:48:21;;;;;;;0.35;0.35;;;;;;;;;;5082384;28;20197;-68
2023/04/02 02:50:47;;;;;;;0.60;0.60;;;;;;;;;;5082042;28;20223;-68
2023/04/02 02:53:16;;;;;;;0.55;0.50;;;;;;;;;;5082247;28;20242;-68
2023/04/02 02:55:44;;;;;;;0.63;0.50;;;;;;;;;;5082052;28;20202;-68
2023/04/02 02:58:13;;;;;;;0.60;0.60;;;;;;;;;;5082071;28;20204;-68
2023/04/02 03:00:40;;;;;;;0.45;0.45;;;;;;;;;;5082240;28;20218;-68
2023/04/02 03:03:07;;;;;;;0.98;0.52;;;;;;;;;;5081597;28;20197;-68
2023/04/02 03:05:34;;;;;;;0.73;0.60;;;;;;;;;;5082051;28;20220;-68
2023/04/02 03:08:02;;;;;;;0.60;0.60;;;;;;;;;;5082155;28;20534;-68
2023/04/02 03:10:32;;;;;;;2.80;0.30;;;;;;;;;;5082242;28;20208;-68
2023/04/02 03:13:02;;;;;;;0.43;0.40;;;;;;;;;;5081519;28;20216;-68
2023/04/02 03:15:32;;;;;;;0.65;0.35;;;;;;;;;;5081921;28;20235;-68
2023/04/02 03:18:00;;;;;;;1.65;0.60;;;;;;;;;;5081923;28;20396;-68
2023/04/02 03:20:31;;;;;;;0.50;0.50;;;;;;;;;;5073825;28;20203;-68
2023/04/02 03:23:00;;;;;;;0.60;0.60;;;;;;;;;;5082250;28;20363;-68
2023/04/02 03:25:32;;;;;;;0.65;0.65;;;;;;;;;;5073746;28;20516;-68
2023/04/02 03:28:02;;;;;;;0.47;0.47;;;;;;;;;;5081697;28;20230;-68
2023/04/02 03:30:30;;;;;;;2.55;0.90;;;;;;;;;;5073898;28;20242;-68
2023/04/02 03:32:58;;;;;;;0.47;0.40;;;;;;;;;;5081702;28;20447;-68
2023/04/02 03:35:28;;;;;;;0.73;0.60;;;;;;;;;;5081743;28;20224;-68
2023/04/02 03:37:58;;;;;;;0.63;0.60;;;;;;;;;;5082071;28;20200;-68
2023/04/02 03:40:26;;;;;;;1.10;0.60;;;;;;;;;;5081801;28;20235;-68
2023/04/02 03:42:54;;;;;;;0.73;0.40;;;;;;;;;;5081426;28;20230;-68
2023/04/02 03:45:23;;;;;;;1.75;0.47;;;;;;;;;;5081609;28;20228;-68
2023/04/02 03:47:54;;;;;;;0.60;0.60;;;;;;;;;;5081539;28;20207;-68
2023/04/02 03:50:26;;;;;;;0.82;0.60;;;;;;;;;;5084396;28;20200;-68
2023/04/02 03:52:53;;;;;;;0.50;0.50;;;;;;;;;;5085520;28;20254;-68
2023/04/02 03:55:21;;;;;;;1.13;0.50;;;;;;;;;;5085483;28;20508;-68
2023/04/02 03:57:52;;;;;;;0.50;0.50;;;;;;;;;;5085544;28;20204;-68
2023/04/02 04:00:20;;;;;;;0.40;0.40;;;;;;;;;;5085376;28;20234;-68
2023/04/02 04:02:51;;;;;;;0.70;0.70;;;;;;;;;;5085127;28;20220;-68
2023/04/02 04:05:25;;;;;;;0.63;0.63;;;;;;;;;;5085159;28;20209;-68
2023/04/02 04:07:52;;;;;;;0.52;0.50;;;;;;;;;;5084894;28;20205;-68
2023/04/02 04:10:20;;;;;;;0.40;0.40;;;;;;;;;;5085425;28;20507;-68
2023/04/02 04:12:47;;;;;;;0.50;0.50;;;;;;;;;;5084602;28;20225;-68
2023/04/02 04:15:16;;;;;;;1.30;1.20;;;;;;;;;;5084912;28;20200;-68
2023/04/02 04:17:50;;;;;;;1.65;1.50;;;;;;;;;;5085019;28;20196;-68
2023/04/02 04:20:20;;;;;;;5.05;2.75;;;;;;;;;;5084495;28;20401;-68
2023/04/02 04:22:48;;;;;;;4.38;2.78;;;;;;;;;;5084638;28;20193;-69
2023/04/02 04:25:21;;;;;;;1.85;1.13;;;;;;;;;;5084616;28;20205;-69
2023/04/02 04:27:53;;;;;;;0.77;0.77;;;;;;;;;;5084657;28;20231;-68
2023/04/02 04:30:23;;;;;;;0.60;0.60;;;;;;;;;;5084743;28;20431;-68
2023/04/02 04:32:56;;;;;;;1.38;0.77;;;;;;;;;;5084064;28;20231;-68
2023/04/02 04:35:26;;;;;;;0.60;0.60;;;;;;;;;;5084368;28;20246;-69
2023/04/02 04:37:57;;;;;;;1.08;0.52;;;;;;;;;;5084586;28;20196;-69
2023/04/02 04:40:25;;;;;;;1.27;0.60;;;;;;;;;;5084465;28;20207;-69
2023/04/02 04:42:54;;;;;;;0.50;0.50;;;;;;;;;;5083971;28;20238;-69
2023/04/02 04:45:28;;;;;;;0.88;0.55;;;;;;;;;;5084191;28;20286;-69
2023/04/02 04:47:57;;;;;;;0.52;0.52;;;;;;;;;;5084405;28;20202;-69
2023/04/02 04:50:28;;;;;;;1.52;0.65;;;;;;;;;;5084339;28;20204;-70
2023/04/02 04:52:54;;;;;;;0.63;0.63;;;;;;;;;;5083957;28;20216;-69
2023/04/02 04:55:28;;;;;;;1.45;0.60;;;;;;;;;;5084041;28;20268;-69
2023/04/02 04:57:56;;;;;;;0.38;0.38;;;;;;;;;;5084370;28;20196;-69
2023/04/02 05:00:24;;;;;;;0.65;0.65;;;;;;;;;;5083935;28;20200;-69
2023/04/02 05:02:52;;;;;;;0.70;0.50;;;;;;;;;;5084152;28;20200;-69
2023/04/02 05:05:20;;;;;;;1.73;0.50;;;;;;;;;;5083864;28;20200;-69
2023/04/02 05:07:50;;;;;;;1.55;0.50;;;;;;;;;;5084161;28;20215;-69
2023/04/02 05:10:19;;;;;;;0.45;0.45;;;;;;;;;;5083867;28;20247;-69
2023/04/02 05:12:48;;;;;;;1.40;0.50;;;;;;;;;;5083797;28;20270;-70
2023/04/02 05:15:16;;;;;;;0.50;0.50;;;;;;;;;;5083912;28;20200;-70
2023/04/02 05:17:45;;;;;;;5.68;3.95;;;;;;;;;;5083945;28;20204;-70
2023/04/02 05:20:15;;;;;;;2.30;2.10;;;;;;;;;;5083758;28;20242;-70
2023/04/02 05:22:44;;;;;;;2.83;2.38;;;;;;;;;;5083889;28;20250;-69
2023/04/02 05:25:20;;;;;;;2.15;0.63;;;;;;;;;;5083333;28;20406;-69
2023/04/02 05:27:47;;;;;;;2.15;0.70;;;;;;;;;;5083484;28;20531;-69
2023/04/02 05:30:31;;;;;;;0.60;0.60;;;;;;;;;;5083375;28;20204;-69
2023/04/02 05:32:59;;;;;;;0.85;0.85;;;;;;;;;;5083206;28;20227;-70
2023/04/02 05:35:28;;;;;;;1.52;0.75;;;;;;;;;;5083369;28;20246;-69
2023/04/02 05:37:54;;;;;;;2.08;0.80;;;;;;;;;;5083363;28;20242;-69
2023/04/02 05:40:23;;;;;;;0.60;0.60;;;;;;;;;;5083191;28;20245;-70
2023/04/02 05:42:51;;;;;;;2.05;0.60;;;;;;;;;;5083395;28;20260;-70
2023/04/02 05:45:20;;;;;;;0.77;0.77;;;;;;;;;;5083156;28;20235;-69
2023/04/02 05:47:48;;;;;;;1.65;1.42;;;;;;;;;;5082947;28;20207;-69
2023/04/02 05:50:18;;;;;;;1.30;1.20;;;;;;;;;;5083044;28;20500;-68
2023/04/02 05:52:46;;;;;;;1.35;1.25;;;;;;;;;;5082871;28;20246;-68
2023/04/02 05:55:26;;;;;;;1.42;1.33;;;;;;;;;;5083066;28;20200;-69
2023/04/02 05:57:55;;;;;;;0.82;0.82;;;;;;;;;;5083041;28;20197;-69
2023/04/02 06:00:25;;;;;;;0.77;0.73;;;;;;;;;;5082906;28;20238;-69
2023/04/02 06:02:58;;;;;;;0.85;0.85;;;;;;;;;;5082868;28;20207;-69
2023/04/02 06:05:26;;;;;;;1.38;0.93;;;;;;;;;;5082591;28;20200;-69
2023/04/02 06:07:55;;;;;;;0.60;0.60;;;;;;;;;;5083290;28;20208;-69
2023/04/02 06:10:23;;;;;;;1.00;1.00;;;;;;;;;;5082502;28;20200;-69
2023/04/02 06:12:53;;;;;;;2.22;1.13;;;;;;;;;;5081853;28;20279;-69
2023/04/02 06:15:20;;;;;;;0.90;0.90;;;;;;;;;;5082594;28;20394;-69
2023/04/02 06:17:47;;;;;;;2.45;0.82;;;;;;;;;;5082854;28;20227;-69
2023/04/02 06:20:16;;;;;;;2.38;1.30;;;;;;;;;;5082489;28;20200;-69
2023/04/02 06:22:43;;;;;;;1.48;1.20;;;;;;;;;;5082381;28;20196;-69
2023/04/02 06:25:11;;;;;;;1.17;1.08;;;;;;;;;;5082403;28;20439;-70
2023/04/02 06:27:39;;;;;;;1.40;1.00;;;;;;;;;;5074435;28;20221;-69
2023/04/02 06:30:11;;;;;;;1.65;1.02;;;;;;;;;;5082414;28;20392;-69
2023/04/02 06:32:37;;;;;;;0.80;0.80;;;;;;;;;;5074154;28;20438;-69
2023/04/02 06:35:03;;;;;;;1.88;0.70;;;;;;;;;;5082448;28;20213;-69
2023/04/02 06:37:31;;;;;;;1.33;0.85;;;;;;;;;;5082327;28;20204;-70
2023/04/02 06:39:58;;;;;;;2.70;0.80;;;;;;;;;;5082088;28;20210;-70
2023/04/02 06:42:27;;;;;;;0.80;0.70;;;;;;;;;;5082082;28;20500;-69
2023/04/02 06:44:53;;;;;;;2.40;1.00;;;;;;;;;;5082338;28;20192;-69
2023/04/02 06:47:26;;;;;;;0.90;0.90;;;;;;;;;;5082188;28;20227;-69
2023/04/02 06:49:54;;;;;;;0.80;0.80;;;;;;;;;;5082187;28;20500;-69
2023/04/02 06:52:23;;;;;;;0.70;0.70;;;;;;;;;;5081733;28;20212;-69
2023/04/02 06:54:50;;;;;;;1.23;0.93;;;;;;;;;;5082066;28;20251;-69
2023/04/02 06:57:16;;;;;;;1.73;0.80;;;;;;;;;;5082028;28;20200;-69
2023/04/02 06:59:42;;;;;;;0.80;0.80;;;;;;;;;;5082115;28;20188;-69
2023/04/02 07:02:18;;;;;;;1.48;0.75;;;;;;;;;;5081922;28;20488;-69
2023/04/02 07:04:45;;;;;;;0.88;0.88;;;;;;;;;;5075084;28;20192;-69
2023/04/02 07:07:11;;;;;;;0.63;0.63;;;;;;;;;;5082157;28;20433;-69
2023/04/02 07:09:38;;;;;;;2.28;1.00;;;;;;;;;;5082125;28;20212;-69
2023/04/02 07:12:10;;;;;;;1.00;0.93;;;;;;;;;;5081742;28;20277;-70
2023/04/02 07:14:36;;;;;;;0.80;0.80;;;;;;;;;;5081747;28;20539;-69
2023/04/02 07:17:02;;;;;;;0.98;0.98;;;;;;;;;;5081728;28;20238;-69
2023/04/02 07:19:29;;;;;;;2.45;2.30;;;;;;;;;;5081589;28;20212;-69
2023/04/02 07:21:56;;;;;;;2.40;2.25;;;;;;;;;;5081848;28;20200;-69
2023/04/02 07:24:23;;;;;;;3.00;2.80;;;;;;;;;;5082724;28;20196;-69
2023/04/02 07:26:49;;;;;;;1.33;0.98;;;;;;;;;;5085840;28;20200;-69
2023/04/02 07:29:16;;;;;;;1.48;0.80;;;;;;;;;;5085580;28;20220;-69
2023/04/02 07:31:42;;;;;;;1.10;1.05;;;;;;;;;;5085838;28;20527;-69
2023/04/02 07:34:09;;;;;;;1.55;0.90;;;;;;;;;;5085334;28;20286;-69
2023/04/02 07:36:35;;;;;;;1.10;1.10;;;;;;;;;;5085583;28;20218;-69
2023/04/02 07:39:03;;;;;;;3.03;1.02;;;;;;;;;;5085642;28;20207;-69
2023/04/02 07:41:29;;;;;;;1.38;1.27;;;;;;;;;;5085272;28;20196;-69
2023/04/02 07:43:55;;;;;;;3.10;1.02;;;;;;;;;;5085631;28;20197;-69
2023/04/02 07:46:22;;;;;;;1.00;1.00;;;;;;;;;;5085206;28;20200;-69
2023/04/02 07:48:48;;;;;;;0.80;0.80;;;;;;;;;;5085298;28;20200;-69
2023/04/02 07:51:15;;;;;;;0.85;0.85;;;;;;;;;;5085478;28;20213;-69
2023/04/02 07:53:41;;;;;;;0.68;0.68;;;;;;;;;;5076904;28;20371;-69
2023/04/02 07:56:13;;;;;;;2.38;1.10;;;;;;;;;;5085327;28;20197;-69
2023/04/02 07:58:39;;;;;;;1.40;0.98;;;;;;;;;;5085323;28;20242;-69
2023/04/02 08:01:15;;;;;;;0.85;0.82;;;;;;;;;;5085080;28;20200;-69
2023/04/02 08:03:41;;;;;;;0.90;0.90;;;;;;;;;;5068826;28;20192;-69
2023/04/02 08:06:08;;;;;;;0.70;0.70;;;;;;;;;;5085193;28;20412;-69
2023/04/02 08:08:34;;;;;;;0.88;0.80;;;;;;;;;;5085209;28;20450;-69
2023/04/02 08:11:00;;;;;;;0.77;0.77;;;;;;;;;;5085125;28;20432;-69
2023/04/02 08:13:28;;;;;;;1.15;1.10;;;;;;;;;;5084563;28;20378;-69
2023/04/02 08:15:54;;;;;;;2.58;0.70;;;;;;;;;;5085188;28;20203;-69
2023/04/02 08:18:21;;;;;;;0.80;0.80;;;;;;;;;;5084967;28;20209;-69
2023/04/02 08:20:47;;;;;;;0.93;0.85;;;;;;;;;;5084897;28;20218;-69
2023/04/02 08:23:16;;;;;;;1.15;0.93;;;;;;;;;;5084456;28;20212;-69
2023/04/02 08:25:42;;;;;;;1.48;1.10;;;;;;;;;;5084696;28;20561;-69
2023/04/02 08:28:09;;;;;;;1.05;0.98;;;;;;;;;;5084590;28;20224;-69
2023/04/02 08:30:36;;;;;;;1.20;1.10;;;;;;;;;;5084569;28;20432;-69
2023/04/02 08:33:03;;;;;;;1.13;1.02;;;;;;;;;;5084738;28;20517;-69
2023/04/02 08:35:29;;;;;;;2.15;1.17;;;;;;;;;;5083866;28;20545;-69
2023/04/02 08:37:56;;;;;;;2.25;1.10;;;;;;;;;;5084778;28;20227;-69
2023/04/02 08:40:24;;;;;;;1.77;0.90;;;;;;;;;;5084504;28;20515;-69
2023/04/02 08:42:57;;;;;;;1.00;1.00;;;;;;;;;;5084275;28;20200;-68
2023/04/02 08:45:29;;;;;;;1.75;1.30;;;;;;;;;;5084405;28;20418;-68
2023/04/02 08:47:58;;;;;;;1.52;1.42;;;;;;;;;;5084537;28;20197;-68
2023/04/02 08:50:29;;;;;;;0.82;0.82;;;;;;;;;;5084299;28;20205;-68
2023/04/02 08:52:55;;;;;;;0.90;0.90;;;;;;;;;;5084105;28;20242;-69
2023/04/02 08:55:25;;;;;;;1.40;0.98;;;;;;;;;;5084346;28;20539;-69
2023/04/02 08:57:54;;;;;;;1.05;0.80;;;;;;;;;;5084573;28;20204;-69
2023/04/02 09:00:26;;;;;;;1.13;1.02;;;;;;;;;;5084222;28;20193;-69
2023/04/02 09:02:54;;;;;;;0.77;0.70;;;;;;;;;;5083975;28;20197;-69
2023/04/02 09:05:23;;;;;;;1.33;1.00;;;;;;;;;;5083819;28;20397;-69
2023/04/02 09:07:51;;;;;;;0.88;0.68;;;;;;;;;;5083921;28;20419;-69
2023/04/02 09:10:18;;;;;;;0.73;0.73;;;;;;;;;;5084176;28;20216;-69
2023/04/02 09:12:45;;;;;;;0.88;0.88;;;;;;;;;;5083400;28;20397;-69
2023/04/02 09:15:19;;;;;;;2.67;1.10;;;;;;;;;;5083750;28;20223;-69
2023/04/02 09:17:45;;;;;;;1.15;0.80;;;;;;;;;;5075403;28;20239;-69
2023/04/02 09:20:17;;;;;;;0.82;0.77;;;;;;;;;;5083703;28;20504;-69
2023/04/02 09:22:45;;;;;;;0.85;0.85;;;;;;;;;;5083265;28;20204;-69
2023/04/02 09:25:13;;;;;;;0.70;0.70;;;;;;;;;;5083759;28;20222;-69
2023/04/02 09:27:39;;;;;;;0.73;0.73;;;;;;;;;;5083445;28;20546;-69
2023/04/02 09:30:07;;;;;;;0.70;0.70;;;;;;;;;;5083729;28;20428;-69
2023/04/02 09:32:44;;;;;;;0.70;0.70;;;;;;;;;;5083644;28;20204;-69
2023/04/02 09:35:14;;;;;;;1.75;0.60;;;;;;;;;;5083647;28;20227;-69
2023/04/02 09:37:41;;;;;;;1.17;0.60;;;;;;;;;;5083346;28;20267;-69
2023/04/02 09:40:19;;;;;;;0.70;0.70;;;;;;;;;;5083439;28;20504;-69
2023/04/02 09:42:45;;;;;;;0.90;0.90;;;;;;;;;;5083237;28;20409;-69
2023/04/02 09:45:12;;;;;;;1.38;0.80;;;;;;;;;;5083277;28;20196;-69
2023/04/02 09:47:39;;;;;;;0.70;0.70;;;;;;;;;;5082257;28;20200;-69
2023/04/02 09:50:23;;;;;;;0.90;0.90;;;;;;;;;;5083126;28;20205;-69
2023/04/02 09:52:50;;;;;;;0.60;0.60;;;;;;;;;;5074983;28;20397;-69
2023/04/02 09:55:20;;;;;;;2.17;0.70;;;;;;;;;;5083201;28;20216;-69
2023/04/02 09:57:47;;;;;;;0.80;0.80;;;;;;;;;;5083266;28;20393;-69
2023/04/02 10:00:18;;;;;;;0.80;0.65;;;;;;;;;;5082906;28;20237;-69
2023/04/02 10:02:45;;;;;;;0.70;0.70;;;;;;;;;;5082681;28;20196;-69
2023/04/02 10:05:17;;;;;;;0.70;0.70;;;;;;;;;;5082886;28;20204;-69
2023/04/02 10:07:44;;;;;;;1.65;0.47;;;;;;;;;;5082977;28;20553;-69
2023/04/02 10:10:18;;;;;;;1.85;0.80;;;;;;;;;;5082821;28;20307;-69
2023/04/02 10:12:46;;;;;;;1.17;0.80;;;;;;;;;;5082324;28;20258;-69
2023/04/02 10:15:15;;;;;;;0.98;0.80;;;;;;;;;;5082450;28;20216;-69
2023/04/02 10:17:42;;;;;;;1.55;0.80;;;;;;;;;;5082543;28;20246;-69
2023/04/02 10:20:16;;;;;;;0.43;0.43;;;;;;;;;;5082518;28;20201;-69
2023/04/02 10:22:42;;;;;;;1.10;0.65;;;;;;;;;;5082250;28;20228;-69
2023/04/02 10:25:13;;;;;;;0.60;0.60;;;;;;;;;;5082918;28;20555;-69
2023/04/02 10:27:44;;;;;;;0.80;0.80;;;;;;;;;;5082454;28;20289;-69
2023/04/02 10:30:15;;;;;;;0.77;0.77;;;;;;;;;;5082297;28;20267;-69
2023/04/02 10:32:44;;;;;;;0.70;0.70;;;;;;;;;;5082115;28;20200;-69
2023/04/02 10:35:14;;;;;;;0.80;0.80;;;;;;;;;;5082056;28;20220;-69
2023/04/02 10:37:57;;;;;;;0.80;0.80;;;;;;;;;;5082150;28;20232;-69
2023/04/02 10:40:27;;;;;;;1.88;0.90;;;;;;;;;;5082336;28;20204;-69
2023/04/02 10:42:57;;;;;;;0.70;0.70;;;;;;;;;;5074354;28;20455;-69
2023/04/02 10:45:34;;;;;;;1.40;0.80;;;;;;;;;;5082060;28;20376;-69
2023/04/02 10:48:04;;;;;;;1.00;0.65;;;;;;;;;;5082128;28;20196;-69
2023/04/02 10:50:33;;;;;;;0.80;0.80;;;;;;;;;;5082350;28;20317;-69
2023/04/02 10:53:05;;;;;;;1.27;0.80;;;;;;;;;;5082119;28;20234;-70
2023/04/02 10:55:33;;;;;;;0.80;0.80;;;;;;;;;;5081866;28;20222;-70
2023/04/02 10:58:03;;;;;;;1.02;0.73;;;;;;;;;;5081868;28;20200;-70
2023/04/02 11:00:34;;;;;;;0.60;0.60;;;;;;;;;;5081932;28;20262;-70
2023/04/02 11:03:04;;;;;;;1.75;0.90;;;;;;;;;;5082096;28;20372;-70
2023/04/02 11:05:35;;;;;;;1.10;0.70;;;;;;;;;;5082046;28;20242;-70
2023/04/02 11:08:03;;;;;;;0.70;0.70;;;;;;;;;;5082103;28;20262;-70
2023/04/02 11:10:31;;;;;;;0.77;0.60;;;;;;;;;;5081875;28;20196;-71
2023/04/02 11:12:59;;;;;;;0.95;0.60;;;;;;;;;;5081562;28;20200;-70
2023/04/02 11:15:26;;;;;;;0.93;0.88;;;;;;;;;;5082004;28;20216;-70
2023/04/02 11:17:53;;;;;;;0.68;0.57;;;;;;;;;;5081709;28;20197;-70
2023/04/02 11:20:39;;;;;;;0.60;0.60;;;;;;;;;;5081915;28;20430;-71
2023/04/02 11:23:09;;;;;;;1.00;0.85;;;;;;;;;;5075177;28;20412;-71
2023/04/02 11:25:35;;;;;;;0.60;0.60;;;;;;;;;;5081962;28;20196;-71
2023/04/02 11:28:12;;;;;;;2.88;0.90;;;;;;;;;;5081866;28;20256;-71
2023/04/02 11:30:39;;;;;;;1.23;0.73;;;;;;;;;;5081620;28;20208;-71
2023/04/02 11:33:20;;;;;;;0.80;0.80;;;;;;;;;;5081671;28;20567;-71
2023/04/02 11:35:48;;;;;;;2.65;0.65;;;;;;;;;;5081332;28;20220;-71
2023/04/02 11:38:47;;;;;;;1.30;0.80;;;;;;;;;;5081998;28;20216;-71
2023/04/02 11:41:13;;;;;;;1.35;0.80;;;;;;;;;;4994829;28;20202;-71
2023/04/02 11:43:48;;;;;;;0.65;0.60;;;;;;;;;;4999833;28;20214;-71
2023/04/02 11:46:35;;;;;;;0.73;0.73;;;;;;;;;;5039927;28;20215;-71
2023/04/02 11:49:17;;;;;;;0.55;0.55;;;;;;;;;;5074471;28;20407;-71
2023/04/02 11:51:49;;;;;;;0.60;0.60;;;;;;;;;;5081519;28;20208;-71
2023/04/02 11:54:21;;;;;;;1.02;0.93;;;;;;;;;;5081383;28;20246;-71
2023/04/02 11:56:52;;;;;;;1.02;0.82;;;;;;;;;;5081226;28;20196;-71
2023/04/02 11:59:21;;;;;;;2.70;0.82;;;;;;;;;;5081713;28;20193;-71
2023/04/02 12:01:54;;;;;;;0.70;0.70;;;;;;;;;;5081286;28;20213;-71
2023/04/02 12:04:39;;;;;;;0.60;0.60;;;;;;;;;;5081419;28;20214;-70
2023/04/02 12:07:16;;;;;;;0.90;0.82;;;;;;;;;;5074405;28;20222;-70
2023/04/02 12:09:44;;;;;;;1.05;0.50;;;;;;;;;;5081155;28;20204;-70
2023/04/02 12:12:18;;;;;;;0.82;0.82;;;;;;;;;;5084955;28;20574;-70
2023/04/02 12:14:45;;;;;;;1.27;0.73;;;;;;;;;;5085201;28;20403;-70
2023/04/02 12:17:16;;;;;;;0.70;0.70;;;;;;;;;;5085530;28;20200;-70
2023/04/02 12:19:46;;;;;;;0.80;0.80;;;;;;;;;;5084866;28;20329;-70
2023/04/02 12:22:18;;;;;;;0.70;0.70;;;;;;;;;;5084853;28;20200;-70
2023/04/02 12:24:46;;;;;;;0.60;0.60;;;;;;;;;;5084600;28;20200;-70
2023/04/02 12:27:23;;;;;;;0.60;0.60;;;;;;;;;;5084355;28;20212;-70
2023/04/02 12:29:51;;;;;;;0.80;0.80;;;;;;;;;;5084155;28;20232;-70
2023/04/02 12:32:20;;;;;;;0.73;0.73;;;;;;;;;;5084520;28;20523;-70
2023/04/02 12:34:47;;;;;;;0.80;0.80;;;;;;;;;;5084265;28;20200;-70
2023/04/02 12:37:20;;;;;;;0.90;0.70;;;;;;;;;;5084283;28;20508;-70
2023/04/02 12:39:51;;;;;;;0.60;0.60;;;;;;;;;;5084264;28;20528;-70
2023/04/02 12:42:25;;;;;;;1.75;0.80;;;;;;;;;;5083980;28;20204;-71
2023/04/02 12:44:51;;;;;;;0.47;0.47;;;;;;;;;;5084503;28;20222;-71
2023/04/02 12:47:17;;;;;;;0.90;0.40;;;;;;;;;;5084308;28;20200;-71
2023/04/02 12:49:44;;;;;;;0.50;0.50;;;;;;;;;;5083858;28;20270;-71
2023/04/02 12:52:11;;;;;;;1.58;1.02;;;;;;;;;;5084056;28;20435;-71
2023/04/02 12:54:45;;;;;;;0.70;0.70;;;;;;;;;;5083804;28;20208;-71
2023/04/02 12:57:32;;;;;;;0.50;0.50;;;;;;;;;;5084081;28;20207;-71
2023/04/02 12:59:59;;;;;;;1.50;0.40;;;;;;;;;;5075780;28;20231;-71
2023/04/02 13:02:26;;;;;;;1.05;0.60;;;;;;;;;;5083738;28;20272;-71
2023/04/02 13:04:54;;;;;;;0.52;0.52;;;;;;;;;;5083759;28;20204;-71
2023/04/02 13:07:22;;;;;;;0.35;0.35;;;;;;;;;;5083597;28;20290;-69
2023/04/02 13:09:50;;;;;;;2.05;0.45;;;;;;;;;;5083528;28;20266;-69
2023/04/02 13:12:24;;;;;;;0.40;0.40;;;;;;;;;;5083591;28;20211;-69
2023/04/02 13:14:52;;;;;;;0.57;0.55;;;;;;;;;;5083550;28;20241;-69
2023/04/02 13:17:37;;;;;;;0.40;0.40;;;;;;;;;;5083643;28;20200;-69
2023/04/02 13:20:18;;;;;;;0.57;0.57;;;;;;;;;;5075604;28;20208;-69
2023/04/02 13:22:44;;;;;;;0.57;0.57;;;;;;;;;;5082996;28;20238;-69
2023/04/02 13:25:12;;;;;;;0.40;0.40;;;;;;;;;;5083519;28;20205;-70
2023/04/02 13:27:38;;;;;;;0.40;0.40;;;;;;;;;;5083335;28;20661;-70
2023/04/02 13:30:08;;;;;;;0.50;0.40;;;;;;;;;;5083418;28;20553;-70
2023/04/02 13:32:35;;;;;;;0.30;0.30;;;;;;;;;;5083225;28;20200;-70
2023/04/02 13:35:01;;;;;;;0.60;0.60;;;;;;;;;;5075081;28;20257;-70
2023/04/02 13:37:27;;;;;;;0.70;0.70;;;;;;;;;;5083548;28;20481;-70
2023/04/02 13:39:53;;;;;;;1.52;0.88;;;;;;;;;;5083135;28;20200;-70
2023/04/02 13:42:21;;;;;;;1.08;1.00;;;;;;;;;;5083037;28;20204;-70
2023/04/02 13:44:48;;;;;;;1.08;1.08;;;;;;;;;;5083191;28;20222;-70
2023/04/02 13:47:14;;;;;;;0.68;0.68;;;;;;;;;;5083444;28;20204;-70
2023/04/02 13:49:40;;;;;;;0.90;0.90;;;;;;;;;;5083162;28;20210;-70
2023/04/02 13:52:12;;;;;;;0.50;0.50;;;;;;;;;;5083249;28;20227;-70
2023/04/02 13:54:41;;;;;;;1.13;0.73;;;;;;;;;;5083377;28;20476;-70
2023/04/02 13:57:07;;;;;;;0.85;0.85;;;;;;;;;;5083054;28;20274;-70
2023/04/02 13:59:34;;;;;;;0.70;0.70;;;;;;;;;;5083059;28;20430;-70
2023/04/02 14:02:04;;;;;;;0.85;0.73;;;;;;;;;;5083131;28;20263;-70
2023/04/02 14:04:33;;;;;;;0.60;0.60;;;;;;;;;;5082968;28;20246;-70
2023/04/02 14:07:14;;;;;;;0.70;0.70;;;;;;;;;;5083046;28;20192;-69
2023/04/02 14:09:46;;;;;;;1.65;0.60;;;;;;;;;;5081105;28;20216;-69
2023/04/02 14:12:15;;;;;;;0.90;0.88;;;;;;;;;;5082494;28;20238;-69
2023/04/02 14:14:51;;;;;;;0.70;0.70;;;;;;;;;;5082894;28;20214;-69
2023/04/02 14:17:22;;;;;;;0.60;0.60;;;;;;;;;;5082521;28;20226;-69
2023/04/02 14:19:54;;;;;;;0.50;0.50;;;;;;;;;;5082802;28;20434;-69
2023/04/02 14:22:26;;;;;;;2.83;0.82;;;;;;;;;;5083071;28;20220;-70
2023/04/02 14:24:55;;;;;;;0.70;0.70;;;;;;;;;;5082637;28;20204;-70
2023/04/02 14:27:25;;;;;;;1.25;1.10;;;;;;;;;;5082139;28;20216;-70
2023/04/02 14:29:57;;;;;;;0.95;0.90;;;;;;;;;;5082186;28;20200;-70
2023/04/02 14:32:25;;;;;;;0.85;0.85;;;;;;;;;;5082092;28;20197;-70
2023/04/02 14:34:56;;;;;;;0.95;0.95;;;;;;;;;;5081665;28;20520;-70
2023/04/02 14:37:29;;;;;;;0.70;0.70;;;;;;;;;;5079860;28;20264;-70
2023/04/02 14:39:59;;;;;;;0.60;0.60;;;;;;;;;;5082468;28;20404;-70
2023/04/02 14:42:31;;;;;;;0.55;0.55;;;;;;;;;;5082405;28;20234;-70
2023/04/02 14:45:01;;;;;;;0.43;0.43;;;;;;;;;;5082554;28;20212;-68
2023/04/02 14:47:28;;;;;;;0.50;0.50;;;;;;;;;;5082450;28;20197;-68
2023/04/02 14:49:57;;;;;;;0.60;0.60;;;;;;;;;;5082176;28;20188;-68
2023/04/02 14:52:23;;;;;;;0.80;0.80;;;;;;;;;;5082795;28;20200;-68
2023/04/02 14:54:53;;;;;;;0.77;0.77;;;;;;;;;;5081194;28;20222;-69
2023/04/02 14:57:22;;;;;;;0.88;0.88;;;;;;;;;;5082005;28;20231;-69